Minturn, AR

5:54 AM CST on December 27, 2014 (GMT -0600)
Newport | Change Station
CLOSE
Current Station
Airport
Location: Newport,
Elevation: 240 ft
Nearby Weather Stations

Elev 240 ft 35.64 °N, 91.17 °W | Updated 21 minutes ago

Mostly Cloudy
Mostly Cloudy
50 °F
Feels Like 50 °F
N
6
Wind Variable Wind from SE

Today
High -- | Low -- °F
--% Chance of Precip.
Yesterday
High -- | Low -- °F
Precip. -- in
7:13 AM 4:57 PM
Waxing Crescent, 36% visible
Pressure 30.11 in
Visibility 7.0 miles
Clouds Few 300 ft
Overcast 3100 ft
Dew Point 50 °F
Humidity 100%
Rainfall 0.17 in
Snow Depth Not available.
UV 0 out of 12
Pollen .10 out of 12
Air Quality Not available.
Flu Activity Not available.
SPECI KM19 271133Z AUTO 13005KT 7SM FEW003 OVC031 10/10 A3011 RMK AO2 RAE31 P0004

More Conditions Fewer Conditions

Pressure 30.11 in
Visibility 7.0 miles
Clouds Few 300 ft
Overcast 3100 ft
Dew Point 50 °F
Humidity 100%
Rainfall 0.17 in
Snow Depth Not available.
UV 0 out of 12
Pollen .10 out of 12
Air Quality Not available.
Flu Activity Not available.
SPECI KM19 271133Z AUTO 13005KT 7SM FEW003 OVC031 10/10 A3011 RMK AO2 RAE31 P0004

More Conditions Fewer Conditions

10-Day Weather Forecast

Almanac

Astronomy

Dec. 27, 2014 Rise Set
Actual Time
Civil Twilight
Nautical Twilight
Astronomical Twilight
Moon
Length of Visible Light
Length of Day
Tomorrow will be .
, % of the Moon is Illuminated

Today's Extremes

State Highs State Lows

Community

WunderPhotos

Upload Photos

1,780,885 photos uploaded!

WunderBlogs® & News

Nearby

Air Quality

  Air Quality AQ Index Pollutant
Not available.

Snow Depth

Station Depth Elevation

Earthquake Activity

City Distance Mag. Time & Date
Minimum magnitude displayed is 2.5.

Coastal Water Temperatures

Place Temperature

Nearby Weather Stations